Terminal Aerodrome Forecast
Issued by NWS

Home | Current Version | Previous Version | Text Only | Print | Product List | Glossary On
Versions: 1 2 3 4 5 6 7 8 9 10 11 12 13 14
463
FTUS46 KMTR 261120
TAFMRY
TAF
KMRY 261120Z 2612/2712 12005KT P6SM SKC
     FM261800 30008KT P6SM SKC
     FM270300 VRB04KT P6SM SKC=

USA.gov is the U.S. government's official web portal to all federal, state and local government web resources and services.